createdAt,value
2023-04-04T00:01:08.428Z,2.30
2023-04-04T00:03:10.623Z,2.63
2023-04-04T00:05:13.001Z,2.33
2023-04-04T00:07:14.994Z,2.53
2023-04-04T00:09:16.973Z,2.63
2023-04-04T00:11:19.013Z,2.50
2023-04-04T00:13:21.057Z,2.83
2023-04-04T00:15:23.034Z,3.00
2023-04-04T00:17:25.083Z,2.77
2023-04-04T00:19:27.101Z,2.40
2023-04-04T00:21:30.533Z,2.60
2023-04-04T00:23:32.571Z,2.50
2023-04-04T00:25:34.634Z,2.80
2023-04-04T00:27:36.862Z,2.80
2023-04-04T00:29:38.997Z,3.43
2023-04-04T00:31:41.375Z,3.00
2023-04-04T00:33:43.537Z,2.60
2023-04-04T00:35:45.686Z,2.60
2023-04-04T00:37:48.565Z,2.57
2023-04-04T00:39:50.649Z,3.13
2023-04-04T00:41:52.752Z,3.40
2023-04-04T00:43:55.259Z,2.97
2023-04-04T00:45:57.523Z,2.67
2023-04-04T00:47:59.724Z,2.63
2023-04-04T00:50:02.244Z,2.40
2023-04-04T00:52:07.329Z,2.33
2023-04-04T00:54:09.608Z,3.23
2023-04-04T00:56:12.301Z,2.80
2023-04-04T00:58:14.421Z,2.50
2023-04-04T01:00:16.708Z,2.83
2023-04-04T01:02:18.659Z,2.73
2023-04-04T01:04:20.849Z,2.57
2023-04-04T01:06:22.962Z,2.93
2023-04-04T01:08:26.576Z,3.00
2023-04-04T01:10:30.621Z,2.70
2023-04-04T01:12:32.860Z,2.83
2023-04-04T01:14:34.966Z,2.97
2023-04-04T01:16:37.447Z,2.43
2023-04-04T01:18:41.918Z,3.20
2023-04-04T01:21:06.233Z,2.80
2023-04-04T01:23:09.654Z,2.73
2023-04-04T01:25:12.889Z,3.23
2023-04-04T01:27:18.567Z,2.53
2023-04-04T01:29:43.069Z,2.93
2023-04-04T01:31:58.015Z,2.60
2023-04-04T01:34:32.609Z,2.80
2023-04-04T01:36:53.687Z,2.80
2023-04-04T01:39:01.320Z,2.87
2023-04-04T01:41:07.807Z,2.90
2023-04-04T01:43:11.560Z,2.73
2023-04-04T01:45:16.394Z,2.70
2023-04-04T01:47:19.317Z,2.80
2023-04-04T01:49:23.477Z,5.63
2023-04-04T01:51:25.956Z,3.50
2023-04-04T01:53:29.333Z,3.27
2023-04-04T01:55:31.334Z,2.90
2023-04-04T01:57:33.677Z,2.83
2023-04-04T01:59:36.398Z,2.30
2023-04-04T02:01:38.733Z,2.70
2023-04-04T02:03:41.061Z,3.30
2023-04-04T02:05:43.768Z,2.97
2023-04-04T02:07:50.622Z,3.00
2023-04-04T02:10:02.804Z,3.07
2023-04-04T02:12:05.134Z,3.03
2023-04-04T02:14:07.208Z,3.13
2023-04-04T02:16:09.246Z,3.37
2023-04-04T02:18:11.247Z,2.83
2023-04-04T02:20:13.455Z,2.60
2023-04-04T02:22:15.509Z,2.90
2023-04-04T02:24:17.717Z,3.27
2023-04-04T02:26:19.946Z,3.33
2023-04-04T02:28:22.665Z,3.03
2023-04-04T02:30:24.716Z,3.17
2023-04-04T02:32:27.487Z,3.03
2023-04-04T02:34:29.562Z,2.53
2023-04-04T02:36:31.642Z,2.67
2023-04-04T02:38:34.181Z,2.83
2023-04-04T02:40:42.292Z,3.30
2023-04-04T02:42:45.522Z,2.97
2023-04-04T02:44:48.217Z,2.60
2023-04-04T02:46:52.848Z,3.40
2023-04-04T02:48:58.149Z,3.53
2023-04-04T02:51:00.843Z,2.67
2023-04-04T02:53:04.036Z,3.10
2023-04-04T02:55:09.581Z,3.40
2023-04-04T02:57:15.196Z,2.80
2023-04-04T02:59:18.184Z,3.50
2023-04-04T03:01:20.497Z,3.37
2023-04-04T03:03:22.925Z,2.23
2023-04-04T03:05:26.877Z,3.20
2023-04-04T03:07:29.566Z,2.87
2023-04-04T03:09:31.776Z,3.13
2023-04-04T03:11:34.354Z,3.03
2023-04-04T03:13:36.920Z,2.60
2023-04-04T03:15:40.849Z,2.67
2023-04-04T03:17:43.509Z,4.10
2023-04-04T03:19:45.825Z,3.17
2023-04-04T03:21:48.409Z,3.20
2023-04-04T03:23:51.950Z,2.33
2023-04-04T03:25:55.242Z,2.77
2023-04-04T03:27:57.463Z,2.73
2023-04-04T03:30:01.769Z,3.43
2023-04-04T03:32:07.891Z,3.30
2023-04-04T03:34:10.041Z,3.17
2023-04-04T03:36:13.220Z,3.20
2023-04-04T03:38:15.392Z,3.60
2023-04-04T03:40:17.828Z,2.70
2023-04-04T03:42:19.866Z,2.93
2023-04-04T03:44:21.844Z,2.90
2023-04-04T03:46:25.537Z,2.17
2023-04-04T03:48:28.404Z,3.20
2023-04-04T03:50:31.231Z,3.10
2023-04-04T03:52:38.033Z,2.60
2023-04-04T03:54:41.763Z,2.80
2023-04-04T03:56:44.138Z,3.50
2023-04-04T03:58:46.340Z,3.20
2023-04-04T04:00:52.986Z,3.70
2023-04-04T04:02:55.160Z,3.43
2023-04-04T04:04:57.278Z,3.97
2023-04-04T04:06:59.688Z,4.27
2023-04-04T04:09:02.015Z,3.40
2023-04-04T04:11:05.403Z,3.33
2023-04-04T04:13:08.554Z,3.33
2023-04-04T04:15:11.457Z,3.10
2023-04-04T04:17:15.927Z,3.40
2023-04-04T04:19:18.545Z,3.30
2023-04-04T04:21:21.650Z,3.13
2023-04-04T04:23:23.721Z,3.60
2023-04-04T04:25:26.912Z,3.10
2023-04-04T04:27:39.517Z,3.50
2023-04-04T04:29:41.878Z,3.30
2023-04-04T04:31:44.463Z,3.13
2023-04-04T04:33:47.228Z,3.20
2023-04-04T04:35:49.383Z,3.10
2023-04-04T04:37:52.469Z,2.93
2023-04-04T04:39:56.384Z,2.77
2023-04-04T04:42:09.605Z,3.40
2023-04-04T04:44:19.779Z,3.33
2023-04-04T04:46:22.372Z,5.33
2023-04-04T04:48:24.410Z,3.80
2023-04-04T04:50:30.106Z,3.40
2023-04-04T04:52:32.921Z,3.30
2023-04-04T04:54:35.040Z,3.60
2023-04-04T04:56:37.731Z,2.90
2023-04-04T04:58:45.559Z,3.90
2023-04-04T05:00:56.843Z,3.80
2023-04-04T05:03:00.954Z,4.20
2023-04-04T05:05:11.055Z,3.30
2023-04-04T05:07:13.195Z,4.00
2023-04-04T05:09:18.545Z,3.77
2023-04-04T05:11:21.832Z,4.47
2023-04-04T05:13:23.999Z,3.73
2023-04-04T05:15:29.104Z,3.67
2023-04-04T05:17:31.939Z,3.37
2023-04-04T05:19:39.378Z,3.30
2023-04-04T05:21:41.902Z,3.97
2023-04-04T05:23:48.636Z,3.70
2023-04-04T05:25:53.470Z,3.60
2023-04-04T05:27:58.635Z,3.67
2023-04-04T05:30:01.315Z,3.67
2023-04-04T05:32:13.089Z,3.33
2023-04-04T05:34:17.547Z,3.20
2023-04-04T05:36:19.805Z,3.40
2023-04-04T05:38:28.018Z,3.30
2023-04-04T05:40:30.014Z,3.43
2023-04-04T05:42:41.010Z,3.20
2023-04-04T05:44:43.347Z,3.70
2023-04-04T05:46:45.431Z,3.07
2023-04-04T05:48:47.973Z,3.50
2023-04-04T05:50:50.029Z,3.70
2023-04-04T05:52:55.773Z,3.40
2023-04-04T05:54:58.231Z,3.80
2023-04-04T05:57:04.258Z,3.60
2023-04-04T05:59:14.452Z,3.17
2023-04-04T06:01:26.699Z,3.53
2023-04-04T06:03:31.894Z,3.60
2023-04-04T06:05:35.439Z,4.00
2023-04-04T06:07:37.950Z,3.93
2023-04-04T06:09:41.227Z,3.30
2023-04-04T06:11:43.426Z,3.80
2023-04-04T06:13:47.512Z,3.70
2023-04-04T06:15:59.802Z,2.93
2023-04-04T06:18:02.024Z,3.20
2023-04-04T06:20:05.207Z,3.40
2023-04-04T06:22:09.236Z,4.50
2023-04-04T06:24:13.912Z,3.60
2023-04-04T06:26:16.597Z,5.40
2023-04-04T06:28:19.703Z,6.17
2023-04-04T06:30:23.335Z,5.53
2023-04-04T06:32:28.114Z,3.90
2023-04-04T06:34:30.376Z,3.80
2023-04-04T06:36:35.796Z,4.10
2023-04-04T06:38:39.792Z,3.87
2023-04-04T06:40:50.108Z,3.70
2023-04-04T06:42:55.113Z,3.70
2023-04-04T06:44:59.242Z,3.50
2023-04-04T06:47:01.581Z,3.23
2023-04-04T06:49:03.853Z,3.17
2023-04-04T06:51:07.257Z,3.70
2023-04-04T06:53:10.109Z,2.40
2023-04-04T06:55:13.192Z,2.70
2023-04-04T06:57:15.255Z,2.93
2023-04-04T06:59:17.401Z,3.23
2023-04-04T07:01:20.419Z,3.27
2023-04-04T07:03:24.128Z,3.23
2023-04-04T07:05:26.751Z,3.00
2023-04-04T07:07:30.017Z,2.87
2023-04-04T07:09:32.093Z,3.10
2023-04-04T07:11:34.223Z,2.77
2023-04-04T07:13:36.638Z,3.20
2023-04-04T07:15:38.691Z,3.20
2023-04-04T07:17:41.394Z,3.00
2023-04-04T07:19:43.634Z,2.80
2023-04-04T07:21:45.667Z,3.53
2023-04-04T07:23:47.963Z,3.40
2023-04-04T07:25:50.043Z,3.47
2023-04-04T07:28:02.303Z,2.73
2023-04-04T07:30:12.628Z,2.50
2023-04-04T07:32:14.703Z,2.73
2023-04-04T07:34:17.118Z,2.47
2023-04-04T07:36:19.177Z,3.23
2023-04-04T07:38:21.439Z,2.73
2023-04-04T07:40:23.607Z,3.30
2023-04-04T07:42:25.668Z,2.50
2023-04-04T07:44:27.703Z,2.40
2023-04-04T07:46:29.924Z,2.30
2023-04-04T07:48:32.062Z,2.87
2023-04-04T07:50:34.398Z,2.47
2023-04-04T07:52:36.826Z,2.53
2023-04-04T07:54:40.439Z,2.70
2023-04-04T07:56:42.662Z,2.20
2023-04-04T07:58:44.827Z,2.40
2023-04-04T08:00:47.049Z,2.83
2023-04-04T08:03:07.001Z,2.93
2023-04-04T08:05:09.341Z,2.40
2023-04-04T08:07:11.542Z,2.60
2023-04-04T08:09:13.633Z,2.20
2023-04-04T08:11:15.994Z,2.83
2023-04-04T08:13:18.588Z,2.80
2023-04-04T08:15:20.796Z,2.90
2023-04-04T08:17:23.057Z,2.80
2023-04-04T08:19:25.128Z,2.43
2023-04-04T08:21:27.641Z,2.50
2023-04-04T08:23:30.688Z,2.97
2023-04-04T08:25:32.775Z,2.00
2023-04-04T08:27:35.058Z,2.60
2023-04-04T08:29:37.164Z,2.03
2023-04-04T08:31:40.587Z,2.40
2023-04-04T08:33:47.256Z,2.33
2023-04-04T08:35:50.565Z,2.50
2023-04-04T08:37:53.057Z,2.93
2023-04-04T08:39:55.384Z,2.53
2023-04-04T08:42:05.481Z,2.60
2023-04-04T08:44:09.259Z,2.43
2023-04-04T08:46:12.745Z,2.10
2023-04-04T08:48:16.569Z,2.67
2023-04-04T08:50:19.713Z,2.37
2023-04-04T08:52:23.630Z,2.50
2023-04-04T08:54:26.650Z,2.20
2023-04-04T08:56:28.807Z,2.23
2023-04-04T08:58:30.946Z,2.30
2023-04-04T09:00:33.338Z,1.87
2023-04-04T09:03:01.225Z,2.70
2023-04-04T09:05:06.953Z,2.60
2023-04-04T09:07:09.883Z,2.53
2023-04-04T09:09:12.330Z,2.07
2023-04-04T09:11:14.955Z,2.03
2023-04-04T09:13:17.622Z,2.30
2023-04-04T09:15:20.071Z,1.80
2023-04-04T09:17:22.389Z,2.10
2023-04-04T09:19:26.242Z,2.13
2023-04-04T09:21:29.357Z,2.30
2023-04-04T09:23:31.545Z,2.63
2023-04-04T09:25:34.486Z,2.10
2023-04-04T09:27:36.594Z,2.40
2023-04-04T09:29:42.342Z,2.50
2023-04-04T09:31:46.746Z,2.83
2023-04-04T09:33:50.463Z,2.03
2023-04-04T09:35:56.382Z,2.27
2023-04-04T09:37:58.766Z,2.00
2023-04-04T09:40:01.315Z,2.30
2023-04-04T09:42:03.672Z,2.30
2023-04-04T09:44:07.371Z,2.17
2023-04-04T09:46:10.027Z,1.90
2023-04-04T09:48:12.199Z,3.03
2023-04-04T09:50:22.103Z,2.50
2023-04-04T09:52:24.323Z,2.03
2023-04-04T09:54:30.183Z,2.43
2023-04-04T09:56:39.106Z,2.00
2023-04-04T09:58:52.442Z,2.20
2023-04-04T10:01:06.221Z,2.03
2023-04-04T10:03:08.887Z,2.60
2023-04-04T10:05:11.553Z,3.37
2023-04-04T10:07:14.868Z,2.33
2023-04-04T10:09:16.894Z,2.60
2023-04-04T10:11:30.177Z,2.10
2023-04-04T10:13:40.736Z,2.10
2023-04-04T10:15:44.741Z,2.47
2023-04-04T10:17:48.265Z,1.87
2023-04-04T10:19:52.203Z,2.50
2023-04-04T10:21:55.585Z,2.60
2023-04-04T10:23:59.310Z,2.20
2023-04-04T10:26:01.666Z,2.20
2023-04-04T10:28:03.937Z,2.13
2023-04-04T10:30:08.070Z,2.13
2023-04-04T10:32:16.389Z,1.90
2023-04-04T10:34:38.291Z,2.20
2023-04-04T10:36:46.000Z,2.40
2023-04-04T10:38:55.756Z,2.00
2023-04-04T10:41:02.299Z,1.80
2023-04-04T10:43:05.752Z,1.93
2023-04-04T10:45:20.406Z,2.00
2023-04-04T10:47:26.312Z,1.93
2023-04-04T10:49:29.880Z,2.23
2023-04-04T10:51:35.347Z,2.03
2023-04-04T10:53:42.380Z,2.10
2023-04-04T10:55:45.996Z,1.90
2023-04-04T10:57:52.507Z,2.00
2023-04-04T11:00:14.484Z,1.80
2023-04-04T11:02:18.289Z,2.10
2023-04-04T11:04:22.821Z,1.70
2023-04-04T11:06:59.509Z,1.67
2023-04-04T11:09:01.798Z,1.57
2023-04-04T11:11:09.721Z,1.90
2023-04-04T11:13:22.860Z,1.77
2023-04-04T11:15:26.464Z,2.00
2023-04-04T11:17:59.419Z,2.20
2023-04-04T11:20:03.976Z,2.60
2023-04-04T11:22:06.231Z,2.30
2023-04-04T11:24:15.864Z,2.03
2023-04-04T11:26:33.134Z,1.93
2023-04-04T11:28:35.236Z,1.90
2023-04-04T11:30:48.835Z,1.90
2023-04-04T11:33:03.887Z,1.93
2023-04-04T11:35:08.870Z,2.47
2023-04-04T11:37:20.846Z,2.33
2023-04-04T11:39:29.524Z,2.00
2023-04-04T11:42:10.499Z,2.07
2023-04-04T11:44:12.899Z,1.83
2023-04-04T11:46:17.761Z,2.10
2023-04-04T11:48:20.509Z,2.00
2023-04-04T11:50:23.326Z,2.00
2023-04-04T11:52:25.584Z,1.67
2023-04-04T11:54:29.663Z,1.90
2023-04-04T11:56:36.796Z,1.93
2023-04-04T11:58:40.446Z,1.77
2023-04-04T12:00:44.173Z,2.07
2023-04-04T12:02:46.488Z,1.77
2023-04-04T12:04:48.759Z,1.93
2023-04-04T12:06:53.158Z,1.67
2023-04-04T12:08:55.581Z,1.83
2023-04-04T12:10:57.842Z,2.27
2023-04-04T12:13:00.014Z,2.03
2023-04-04T12:15:14.495Z,1.70
2023-04-04T12:17:19.477Z,2.37
2023-04-04T12:19:24.711Z,2.10
2023-04-04T12:21:27.073Z,2.00
2023-04-04T12:23:35.807Z,2.03
2023-04-04T12:25:40.125Z,1.90
2023-04-04T12:27:42.992Z,1.80
2023-04-04T12:29:47.636Z,1.93
2023-04-04T12:31:50.712Z,2.30
2023-04-04T12:33:53.393Z,1.97
2023-04-04T12:35:55.751Z,1.87
2023-04-04T12:38:08.463Z,1.97
2023-04-04T12:40:10.902Z,1.97
2023-04-04T12:42:13.728Z,1.83
2023-04-04T12:44:27.942Z,2.23
2023-04-04T12:46:39.724Z,2.13
2023-04-04T12:48:42.662Z,1.93
2023-04-04T12:50:52.822Z,2.33
2023-04-04T12:53:00.282Z,1.80
2023-04-04T12:55:11.106Z,2.13
2023-04-04T12:57:21.401Z,2.03
2023-04-04T12:59:24.821Z,2.27
2023-04-04T13:01:28.435Z,2.17
2023-04-04T13:03:30.900Z,1.90
2023-04-04T13:05:35.789Z,2.60
2023-04-04T13:07:43.101Z,2.10
2023-04-04T13:09:53.279Z,2.27
2023-04-04T13:12:08.507Z,2.30
2023-04-04T13:14:13.170Z,2.00
2023-04-04T13:16:35.657Z,2.20
2023-04-04T13:18:42.380Z,2.00
2023-04-04T13:20:44.755Z,2.70
2023-04-04T13:22:47.035Z,2.53
2023-04-04T13:24:49.228Z,2.40
2023-04-04T13:26:51.684Z,2.10
2023-04-04T13:28:53.868Z,1.97
2023-04-04T13:30:56.814Z,2.20
2023-04-04T13:32:59.336Z,2.07
2023-04-04T13:35:01.520Z,2.10
2023-04-04T13:37:03.812Z,1.87
2023-04-04T13:39:06.007Z,1.70
2023-04-04T13:41:08.289Z,1.80
2023-04-04T13:43:15.155Z,2.20
2023-04-04T13:45:17.414Z,1.80
2023-04-04T13:47:22.814Z,1.70
2023-04-04T13:49:25.694Z,1.60
2023-04-04T13:51:28.133Z,2.13
2023-04-04T13:53:30.349Z,1.70
2023-04-04T13:55:32.602Z,1.67
2023-04-04T13:57:34.904Z,2.13
2023-04-04T13:59:37.150Z,2.50
2023-04-04T14:01:40.680Z,2.00
2023-04-04T14:03:43.028Z,2.20
2023-04-04T14:05:45.284Z,2.10
2023-04-04T14:07:47.524Z,1.90
2023-04-04T14:09:49.770Z,2.00
2023-04-04T14:11:51.941Z,1.97
2023-04-04T14:13:54.195Z,2.00
2023-04-04T14:15:56.862Z,2.10
2023-04-04T14:17:59.520Z,1.80
2023-04-04T14:20:01.928Z,2.00
2023-04-04T14:22:05.228Z,2.00
2023-04-04T14:24:07.522Z,2.30
2023-04-04T14:26:09.763Z,2.30
2023-04-04T14:28:12.034Z,2.70
2023-04-04T14:30:14.554Z,1.93
2023-04-04T14:32:16.870Z,2.03
2023-04-04T14:34:19.028Z,1.90
2023-04-04T14:36:21.792Z,2.00
2023-04-04T14:38:24.028Z,2.70
2023-04-04T14:40:26.583Z,1.90
2023-04-04T14:42:28.722Z,2.00
2023-04-04T14:44:32.331Z,2.40
2023-04-04T14:46:34.682Z,2.37
2023-04-04T14:48:37.041Z,2.30
2023-04-04T14:50:40.323Z,1.97
2023-04-04T14:52:42.508Z,2.07
2023-04-04T14:54:44.885Z,2.03
2023-04-04T14:56:47.334Z,2.57
2023-04-04T14:58:50.610Z,2.13
2023-04-04T15:00:52.923Z,2.30
2023-04-04T15:02:55.616Z,2.10
2023-04-04T15:04:57.935Z,2.20
2023-04-04T15:07:03.184Z,2.50
2023-04-04T15:09:06.766Z,1.90
2023-04-04T15:11:10.076Z,2.60
2023-04-04T15:13:12.290Z,2.00
2023-04-04T15:15:15.701Z,1.93
2023-04-04T15:17:17.928Z,14.67
2023-04-04T15:19:20.574Z,2.03
2023-04-04T15:21:22.902Z,1.90
2023-04-04T15:23:25.281Z,2.00
2023-04-04T15:25:28.872Z,1.90
2023-04-04T15:27:31.142Z,2.00
2023-04-04T15:29:33.286Z,3.93
2023-04-04T15:31:35.761Z,1.93
2023-04-04T15:33:38.114Z,2.27
2023-04-04T15:35:40.592Z,2.10
2023-04-04T15:37:42.696Z,2.37
2023-04-04T15:39:52.963Z,1.63
2023-04-04T15:41:56.922Z,2.00
2023-04-04T15:43:59.076Z,2.37
2023-04-04T15:46:01.581Z,2.33
2023-04-04T15:48:04.068Z,2.20
2023-04-04T15:50:07.204Z,2.47
2023-04-04T15:52:09.333Z,2.07
2023-04-04T15:54:12.546Z,2.50
2023-04-04T15:56:15.083Z,2.73
2023-04-04T15:58:17.233Z,2.30
2023-04-04T16:00:19.692Z,2.43
2023-04-04T16:02:22.012Z,2.10
2023-04-04T16:04:24.397Z,1.97
2023-04-04T16:06:27.234Z,2.70
2023-04-04T16:08:29.489Z,1.80
2023-04-04T16:10:31.745Z,2.20
2023-04-04T16:12:34.067Z,2.47
2023-04-04T16:14:36.263Z,2.43
2023-04-04T16:16:40.522Z,2.50
2023-04-04T16:18:42.818Z,2.20
2023-04-04T16:20:45.063Z,2.90
2023-04-04T16:22:48.385Z,2.53
2023-04-04T16:24:50.566Z,1.87
2023-04-04T16:26:52.760Z,2.10
2023-04-04T16:28:54.925Z,2.00
2023-04-04T16:30:59.433Z,2.17
2023-04-04T16:33:01.788Z,1.90
2023-04-04T16:35:04.099Z,2.27
2023-04-04T16:37:06.436Z,2.20
2023-04-04T16:39:08.819Z,1.97
2023-04-04T16:41:11.114Z,2.30
2023-04-04T16:43:13.434Z,2.70
2023-04-04T16:45:15.699Z,1.97
2023-04-04T16:47:17.896Z,2.17
2023-04-04T16:49:20.267Z,2.20
2023-04-04T16:51:22.582Z,2.23
2023-04-04T16:53:24.792Z,2.10
2023-04-04T16:55:27.768Z,2.50
2023-04-04T16:57:29.927Z,2.13
2023-04-04T16:59:32.198Z,2.30
2023-04-04T17:01:34.582Z,2.90
2023-04-04T17:03:36.879Z,2.70
2023-04-04T17:05:39.128Z,2.60
2023-04-04T17:07:41.722Z,2.50
2023-04-04T17:09:44.495Z,2.40
2023-04-04T17:11:47.811Z,2.10
2023-04-04T17:13:50.026Z,2.73
2023-04-04T17:15:52.759Z,2.60
2023-04-04T17:17:54.935Z,2.10
2023-04-04T17:19:57.683Z,2.37
2023-04-04T17:21:59.955Z,2.33
2023-04-04T17:24:02.207Z,2.20
2023-04-04T17:26:04.476Z,2.20
2023-04-04T17:28:07.471Z,2.80
2023-04-04T17:30:10.364Z,3.03
2023-04-04T17:32:12.739Z,3.10
2023-04-04T17:34:16.269Z,2.90
2023-04-04T17:36:19.500Z,3.43
2023-04-04T17:38:22.420Z,2.20
2023-04-04T17:40:24.621Z,2.60
2023-04-04T17:42:27.226Z,2.97
2023-04-04T17:44:29.458Z,2.30
2023-04-04T17:46:31.715Z,2.93
2023-04-04T17:48:38.462Z,2.20
2023-04-04T17:50:40.817Z,2.23
2023-04-04T17:52:43.060Z,2.40
2023-04-04T17:54:47.888Z,2.33
2023-04-04T17:56:50.453Z,2.87
2023-04-04T17:58:53.732Z,2.30
2023-04-04T18:00:57.645Z,2.20
2023-04-04T18:02:59.973Z,2.90
2023-04-04T18:05:02.749Z,2.70
2023-04-04T18:07:06.835Z,2.57
2023-04-04T18:09:10.336Z,2.10
2023-04-04T18:11:12.800Z,2.63
2023-04-04T18:13:15.616Z,2.33
2023-04-04T18:15:18.074Z,3.43
2023-04-04T18:17:20.639Z,4.67
2023-04-04T18:19:22.822Z,3.40
2023-04-04T18:21:24.978Z,4.20
2023-04-04T18:23:27.538Z,3.80
2023-04-04T18:25:31.248Z,3.37
2023-04-04T18:27:33.391Z,3.00
2023-04-04T18:29:35.615Z,3.10
2023-04-04T18:31:38.088Z,3.33
2023-04-04T18:33:40.466Z,2.97
2023-04-04T18:35:42.692Z,3.80
2023-04-04T18:37:45.027Z,3.90
2023-04-04T18:39:47.214Z,3.10
2023-04-04T18:41:49.871Z,3.70
2023-04-04T18:43:52.103Z,3.80
2023-04-04T18:45:55.164Z,4.10
2023-04-04T18:47:57.339Z,4.70
2023-04-04T18:49:59.536Z,4.13
2023-04-04T18:52:01.810Z,4.17
2023-04-04T18:54:04.652Z,4.57
2023-04-04T18:56:06.969Z,4.40
2023-04-04T18:58:09.253Z,3.73
2023-04-04T19:00:12.370Z,4.13
2023-04-04T19:02:14.518Z,4.40
2023-04-04T19:04:19.845Z,4.00
2023-04-04T19:06:26.836Z,4.00
2023-04-04T19:08:28.971Z,3.60
2023-04-04T19:10:31.382Z,4.53
2023-04-04T19:12:33.860Z,5.60
2023-04-04T19:14:36.083Z,5.20
2023-04-04T19:16:39.535Z,5.13
2023-04-04T19:18:45.437Z,5.10
2023-04-04T19:20:47.593Z,6.07
2023-04-04T19:22:49.753Z,5.17
2023-04-04T19:24:52.059Z,8.00
2023-04-04T19:26:55.056Z,5.70
2023-04-04T19:28:58.564Z,5.83
2023-04-04T19:31:02.125Z,5.87
2023-04-04T19:33:09.165Z,5.70
2023-04-04T19:35:20.715Z,5.40
2023-04-04T19:37:22.947Z,5.17
2023-04-04T19:39:26.191Z,6.17
2023-04-04T19:41:39.733Z,3.60
2023-04-04T19:43:43.358Z,4.43
2023-04-04T19:45:53.162Z,3.53
2023-04-04T19:47:55.502Z,3.77
2023-04-04T19:49:57.804Z,3.33
2023-04-04T19:52:01.811Z,3.77
2023-04-04T19:54:11.334Z,4.23
2023-04-04T19:56:15.478Z,4.50
2023-04-04T19:58:21.892Z,3.83
2023-04-04T20:00:25.866Z,4.30
2023-04-04T20:02:28.020Z,4.23
2023-04-04T20:04:30.366Z,4.17
2023-04-04T20:06:32.750Z,3.57
2023-04-04T20:08:47.848Z,4.00
2023-04-04T20:10:52.202Z,4.07
2023-04-04T20:12:55.786Z,4.30
2023-04-04T20:14:59.566Z,4.53
2023-04-04T20:17:01.785Z,3.77
2023-04-04T20:19:06.836Z,4.50
2023-04-04T20:21:20.305Z,3.70
2023-04-04T20:23:23.279Z,4.20
2023-04-04T20:25:42.159Z,4.63
2023-04-04T20:27:44.922Z,5.57
2023-04-04T20:29:47.508Z,4.70
2023-04-04T20:31:53.447Z,5.00
2023-04-04T20:33:55.701Z,4.63
2023-04-04T20:36:07.893Z,4.00
2023-04-04T20:38:10.227Z,4.20
2023-04-04T20:40:14.493Z,3.90
2023-04-04T20:42:32.105Z,4.80
2023-04-04T20:44:34.273Z,4.60
2023-04-04T20:46:36.640Z,5.40
2023-04-04T20:48:39.963Z,4.07
2023-04-04T20:50:43.878Z,3.80
2023-04-04T20:52:49.924Z,4.60
2023-04-04T20:54:52.087Z,3.57
2023-04-04T20:56:56.637Z,3.93
2023-04-04T20:58:59.304Z,3.80
2023-04-04T21:01:01.905Z,3.47
2023-04-04T21:03:23.375Z,3.40
2023-04-04T21:05:30.523Z,3.40
2023-04-04T21:07:39.550Z,3.73
2023-04-04T21:09:41.696Z,3.60
2023-04-04T21:11:43.952Z,3.13
2023-04-04T21:13:46.943Z,3.50
2023-04-04T21:15:49.308Z,3.00
2023-04-04T21:17:51.743Z,3.27
2023-04-04T21:19:53.955Z,3.60
2023-04-04T21:21:56.113Z,3.53
2023-04-04T21:24:01.638Z,3.23
2023-04-04T21:26:05.177Z,3.47
2023-04-04T21:28:07.298Z,3.37
2023-04-04T21:30:11.166Z,3.93
2023-04-04T21:32:21.691Z,4.30
2023-04-04T21:34:25.231Z,3.57
2023-04-04T21:36:28.943Z,3.50
2023-04-04T21:38:32.910Z,3.50
2023-04-04T21:40:36.008Z,3.70
2023-04-04T21:42:38.159Z,3.30
2023-04-04T21:44:40.367Z,3.37
2023-04-04T21:46:43.245Z,3.47
2023-04-04T21:48:45.559Z,3.40
2023-04-04T21:50:47.747Z,3.60
2023-04-04T21:52:50.031Z,4.10
2023-04-04T21:54:52.221Z,3.80
2023-04-04T21:56:54.343Z,3.70
2023-04-04T21:58:57.996Z,3.57
2023-04-04T22:01:00.355Z,4.07
2023-04-04T22:03:02.740Z,4.50
2023-04-04T22:05:05.529Z,3.70
2023-04-04T22:07:07.725Z,4.03
2023-04-04T22:09:10.785Z,3.57
2023-04-04T22:11:19.505Z,4.47
2023-04-04T22:13:22.680Z,3.37
2023-04-04T22:15:29.377Z,3.10
2023-04-04T22:17:31.661Z,4.10
2023-04-04T22:19:43.447Z,3.20
2023-04-04T22:21:47.130Z,3.57
2023-04-04T22:23:51.726Z,3.27
2023-04-04T22:25:53.900Z,3.13
2023-04-04T22:27:56.071Z,3.63
2023-04-04T22:29:58.124Z,3.40
2023-04-04T22:32:00.415Z,3.70
2023-04-04T22:34:03.498Z,3.23
2023-04-04T22:36:08.007Z,4.10
2023-04-04T22:38:10.083Z,3.90
2023-04-04T22:40:13.542Z,4.73
2023-04-04T22:42:16.240Z,4.70
2023-04-04T22:44:18.299Z,4.30
2023-04-04T22:46:20.528Z,4.07
2023-04-04T22:48:23.107Z,4.10
2023-04-04T22:50:25.228Z,3.97
2023-04-04T22:52:27.175Z,3.90
2023-04-04T22:54:29.385Z,3.27
2023-04-04T22:56:31.506Z,4.43
2023-04-04T22:58:33.535Z,3.80
2023-04-04T23:00:36.018Z,3.70
2023-04-04T23:02:39.219Z,4.07
2023-04-04T23:04:41.400Z,3.93
2023-04-04T23:06:44.968Z,4.03
2023-04-04T23:08:47.031Z,3.80
2023-04-04T23:10:49.048Z,3.80
2023-04-04T23:12:51.274Z,3.90
2023-04-04T23:14:53.387Z,3.70
2023-04-04T23:16:56.749Z,3.50
2023-04-04T23:18:58.822Z,3.97
2023-04-04T23:21:01.783Z,3.53
2023-04-04T23:23:03.800Z,4.10
2023-04-04T23:25:07.652Z,4.10
2023-04-04T23:27:09.812Z,4.03
2023-04-04T23:29:11.848Z,3.33
2023-04-04T23:31:20.940Z,3.70
2023-04-04T23:33:23.004Z,3.40
2023-04-04T23:35:25.074Z,4.00
2023-04-04T23:37:27.088Z,4.20
2023-04-04T23:39:29.832Z,4.40
2023-04-04T23:41:32.353Z,3.53
2023-04-04T23:43:36.030Z,4.60
2023-04-04T23:45:39.706Z,4.20
2023-04-04T23:47:41.863Z,5.03
2023-04-04T23:49:43.868Z,3.60
2023-04-04T23:51:45.924Z,3.80
2023-04-04T23:53:48.115Z,3.37
2023-04-04T23:55:50.342Z,3.10
2023-04-04T23:57:52.413Z,4.00
2023-04-04T23:59:54.450Z,3.27
